sensor_id;sensor_type;location;lat;lon;timestamp;temperature;humidity
1678;DHT22;6034;46.864;15.216;2022-11-10T06:01:47;5.60;99.90
1678;DHT22;6034;46.864;15.216;2022-11-10T06:04:15;5.70;99.90
1678;DHT22;6034;46.864;15.216;2022-11-10T06:06:42;5.50;99.90
1678;DHT22;6034;46.864;15.216;2022-11-10T06:09:09;5.50;99.90
1678;DHT22;6034;46.864;15.216;2022-11-10T06:11:36;5.60;99.90
1678;DHT22;6034;46.864;15.216;2022-11-10T06:14:03;5.70;99.90
1678;DHT22;6034;46.864;15.216;2022-11-10T06:16:30;5.60;99.90
1678;DHT22;6034;46.864;15.216;2022-11-10T06:18:58;5.60;99.90
1678;DHT22;6034;46.864;15.216;2022-11-10T06:21:26;5.70;99.90
1678;DHT22;6034;46.864;15.216;2022-11-10T06:23:53;5.70;99.90
1678;DHT22;6034;46.864;15.216;2022-11-10T06:26:19;5.70;99.90
1678;DHT22;6034;46.864;15.216;2022-11-10T06:28:46;5.60;99.90
1678;DHT22;6034;46.864;15.216;2022-11-10T06:31:13;5.70;99.90
1678;DHT22;6034;46.864;15.216;2022-11-10T06:33:40;5.60;99.90
1678;DHT22;6034;46.864;15.216;2022-11-10T06:36:09;5.70;99.90
1678;DHT22;6034;46.864;15.216;2022-11-10T06:38:35;5.70;99.90
1678;DHT22;6034;46.864;15.216;2022-11-10T06:41:03;5.80;99.90
1678;DHT22;6034;46.864;15.216;2022-11-10T06:43:30;5.90;99.90
1678;DHT22;6034;46.864;15.216;2022-11-10T06:45:56;5.90;99.90
1678;DHT22;6034;46.864;15.216;2022-11-10T06:48:23;5.90;99.90
1678;DHT22;6034;46.864;15.216;2022-11-10T06:50:50;6.00;99.90
1678;DHT22;6034;46.864;15.216;2022-11-10T06:53:19;6.00;99.90
1678;DHT22;6034;46.864;15.216;2022-11-10T06:55:45;6.10;99.90
1678;DHT22;6034;46.864;15.216;2022-11-10T06:58:12;6.10;99.90
1678;DHT22;6034;46.864;15.216;2022-11-10T07:00:40;6.10;99.90
1678;DHT22;6034;46.864;15.216;2022-11-10T07:03:09;6.10;99.90
1678;DHT22;6034;46.864;15.216;2022-11-10T07:05:37;6.10;99.90
1678;DHT22;6034;46.864;15.216;2022-11-10T07:08:05;6.00;99.90
1678;DHT22;6034;46.864;15.216;2022-11-10T07:10:34;5.90;99.90
1678;DHT22;6034;46.864;15.216;2022-11-10T07:13:01;5.90;99.90
1678;DHT22;6034;46.864;15.216;2022-11-10T07:15:28;6.00;99.90
1678;DHT22;6034;46.864;15.216;2022-11-10T07:17:55;6.00;99.90
1678;DHT22;6034;46.864;15.216;2022-11-10T07:20:22;6.00;99.90
1678;DHT22;6034;46.864;15.216;2022-11-10T07:22:55;6.10;99.90
1678;DHT22;6034;46.864;15.216;2022-11-10T07:25:22;6.10;99.90
1678;DHT22;6034;46.864;15.216;2022-11-10T07:27:53;6.20;99.90
1678;DHT22;6034;46.864;15.216;2022-11-10T07:30:20;6.40;99.90
1678;DHT22;6034;46.864;15.216;2022-11-10T07:32:47;6.40;99.90
1678;DHT22;6034;46.864;15.216;2022-11-10T07:35:22;6.60;99.90
1678;DHT22;6034;46.864;15.216;2022-11-10T07:37:49;6.60;99.90
1678;DHT22;6034;46.864;15.216;2022-11-10T07:40:16;6.70;99.90
1678;DHT22;6034;46.864;15.216;2022-11-10T07:42:43;6.80;99.90
1678;DHT22;6034;46.864;15.216;2022-11-10T07:45:11;6.80;99.90
1678;DHT22;6034;46.864;15.216;2022-11-10T07:47:38;6.90;99.90
1678;DHT22;6034;46.864;15.216;2022-11-10T07:50:05;7.00;99.90
1678;DHT22;6034;46.864;15.216;2022-11-10T07:52:32;7.00;99.90
1678;DHT22;6034;46.864;15.216;2022-11-10T07:55:00;7.00;99.90
1678;DHT22;6034;46.864;15.216;2022-11-10T07:57:27;6.80;99.90
1678;DHT22;6034;46.864;15.216;2022-11-10T07:59:53;7.00;99.90
1678;DHT22;6034;46.864;15.216;2022-11-10T08:02:22;7.10;99.90
1678;DHT22;6034;46.864;15.216;2022-11-10T08:04:49;7.20;99.90
1678;DHT22;6034;46.864;15.216;2022-11-10T08:07:16;7.00;99.90
1678;DHT22;6034;46.864;15.216;2022-11-10T08:09:43;7.00;99.90
1678;DHT22;6034;46.864;15.216;2022-11-10T08:12:10;6.80;99.90
1678;DHT22;6034;46.864;15.216;2022-11-10T08:14:37;6.70;99.90
1678;DHT22;6034;46.864;15.216;2022-11-10T08:17:04;6.80;99.90
1678;DHT22;6034;46.864;15.216;2022-11-10T08:19:32;6.90;99.90
1678;DHT22;6034;46.864;15.216;2022-11-10T08:21:59;6.90;99.90
1678;DHT22;6034;46.864;15.216;2022-11-10T08:24:26;7.00;99.90
1678;DHT22;6034;46.864;15.216;2022-11-10T08:26:52;7.10;99.90
1678;DHT22;6034;46.864;15.216;2022-11-10T08:29:19;7.10;99.90
1678;DHT22;6034;46.864;15.216;2022-11-10T08:31:46;7.10;99.90
1678;DHT22;6034;46.864;15.216;2022-11-10T08:34:13;7.20;99.90
1678;DHT22;6034;46.864;15.216;2022-11-10T08:36:43;7.20;99.90
1678;DHT22;6034;46.864;15.216;2022-11-10T08:39:10;7.20;99.90
1678;DHT22;6034;46.864;15.216;2022-11-10T08:41:37;7.20;99.90
1678;DHT22;6034;46.864;15.216;2022-11-10T08:44:04;7.30;99.90
1678;DHT22;6034;46.864;15.216;2022-11-10T08:46:31;7.30;99.90
1678;DHT22;6034;46.864;15.216;2022-11-10T08:48:58;7.30;99.90
1678;DHT22;6034;46.864;15.216;2022-11-10T08:51:25;7.40;99.90
1678;DHT22;6034;46.864;15.216;2022-11-10T08:53:53;7.40;99.90
1678;DHT22;6034;46.864;15.216;2022-11-10T08:56:20;7.40;99.90
1678;DHT22;6034;46.864;15.216;2022-11-10T08:58:47;7.50;99.90
1678;DHT22;6034;46.864;15.216;2022-11-10T09:01:14;7.50;99.90
1678;DHT22;6034;46.864;15.216;2022-11-10T09:03:41;7.60;99.90
1678;DHT22;6034;46.864;15.216;2022-11-10T09:06:08;7.60;99.90
1678;DHT22;6034;46.864;15.216;2022-11-10T09:08:35;7.70;99.90
1678;DHT22;6034;46.864;15.216;2022-11-10T09:11:04;7.80;99.90
1678;DHT22;6034;46.864;15.216;2022-11-10T09:13:31;7.80;99.90
1678;DHT22;6034;46.864;15.216;2022-11-10T09:15:59;7.80;99.90
1678;DHT22;6034;46.864;15.216;2022-11-10T09:18:26;7.90;99.90
1678;DHT22;6034;46.864;15.216;2022-11-10T09:20:53;8.00;99.90
1678;DHT22;6034;46.864;15.216;2022-11-10T09:23:20;8.10;99.90
1678;DHT22;6034;46.864;15.216;2022-11-10T09:25:49;8.00;99.90
1678;DHT22;6034;46.864;15.216;2022-11-10T09:28:18;8.10;99.90
1678;DHT22;6034;46.864;15.216;2022-11-10T09:30:46;8.10;99.90
1678;DHT22;6034;46.864;15.216;2022-11-10T09:33:13;8.20;99.90
1678;DHT22;6034;46.864;15.216;2022-11-10T09:35:40;8.20;99.90
1678;DHT22;6034;46.864;15.216;2022-11-10T09:38:07;8.20;99.90
1678;DHT22;6034;46.864;15.216;2022-11-10T09:40:38;8.20;99.90
1678;DHT22;6034;46.864;15.216;2022-11-10T09:43:10;8.30;99.90
1678;DHT22;6034;46.864;15.216;2022-11-10T09:45:40;8.30;99.90
1678;DHT22;6034;46.864;15.216;2022-11-10T09:48:11;8.20;99.90
1678;DHT22;6034;46.864;15.216;2022-11-10T09:50:42;8.30;99.90
1678;DHT22;6034;46.864;15.216;2022-11-10T09:53:11;8.20;99.90
1678;DHT22;6034;46.864;15.216;2022-11-10T09:55:41;8.20;99.90
1678;DHT22;6034;46.864;15.216;2022-11-10T09:58:09;8.20;99.90
1678;DHT22;6034;46.864;15.216;2022-11-10T10:00:37;8.30;99.90
1678;DHT22;6034;46.864;15.216;2022-11-10T10:03:05;8.20;99.90
1678;DHT22;6034;46.864;15.216;2022-11-10T10:05:41;8.30;99.90
1678;DHT22;6034;46.864;15.216;2022-11-10T10:08:11;8.30;99.90
1678;DHT22;6034;46.864;15.216;2022-11-10T10:10:42;8.40;99.90
1678;DHT22;6034;46.864;15.216;2022-11-10T10:13:17;8.40;99.90
1678;DHT22;6034;46.864;15.216;2022-11-10T10:15:48;8.50;99.90
1678;DHT22;6034;46.864;15.216;2022-11-10T10:18:22;8.50;99.90
1678;DHT22;6034;46.864;15.216;2022-11-10T10:21:00;8.50;99.90
1678;DHT22;6034;46.864;15.216;2022-11-10T10:23:30;8.60;99.90
1678;DHT22;6034;46.864;15.216;2022-11-10T10:25:58;8.70;99.90
1678;DHT22;6034;46.864;15.216;2022-11-10T10:28:26;8.70;99.90
1678;DHT22;6034;46.864;15.216;2022-11-10T10:30:54;8.70;99.90
1678;DHT22;6034;46.864;15.216;2022-11-10T10:33:23;8.80;99.90
1678;DHT22;6034;46.864;15.216;2022-11-10T10:35:49;8.90;99.90
1678;DHT22;6034;46.864;15.216;2022-11-10T10:38:19;8.90;99.90
